createdAt,value
2022-08-26T00:01:18.289Z,24.08
2022-08-26T00:03:51.099Z,23.87
2022-08-26T00:06:20.899Z,23.34
2022-08-26T00:08:47.661Z,23.56
2022-08-26T00:11:15.251Z,23.67
2022-08-26T00:13:53.054Z,23.71
2022-08-26T00:16:19.994Z,23.37
2022-08-26T00:18:46.506Z,23.33
2022-08-26T00:21:12.981Z,23.46
2022-08-26T00:23:40.263Z,23.64
2022-08-26T00:26:06.904Z,23.55
2022-08-26T00:28:35.961Z,23.49
2022-08-26T00:31:02.520Z,23.52
2022-08-26T00:33:29.946Z,23.52
2022-08-26T00:35:56.896Z,23.49
2022-08-26T00:38:24.763Z,23.60
2022-08-26T00:40:55.995Z,23.53
2022-08-26T00:43:24.161Z,23.53
2022-08-26T00:46:05.054Z,23.49
2022-08-26T00:48:34.509Z,23.38
2022-08-26T00:51:11.652Z,23.40
2022-08-26T00:53:45.648Z,23.42
2022-08-26T00:56:31.933Z,23.65
2022-08-26T00:59:05.126Z,23.23
2022-08-26T01:01:32.216Z,23.03
2022-08-26T01:04:00.897Z,23.27
2022-08-26T01:06:28.522Z,23.38
2022-08-26T01:08:56.086Z,23.31
2022-08-26T01:11:24.141Z,23.14
2022-08-26T01:14:00.095Z,23.26
2022-08-26T01:16:26.861Z,23.23
2022-08-26T01:18:59.491Z,23.37
2022-08-26T01:21:31.090Z,23.44
2022-08-26T01:23:59.435Z,23.39
2022-08-26T01:26:35.673Z,23.46
2022-08-26T01:29:05.246Z,23.27
2022-08-26T01:31:39.023Z,23.32
2022-08-26T01:34:20.329Z,23.31
2022-08-26T01:36:51.410Z,23.19
2022-08-26T01:39:18.887Z,23.25
2022-08-26T01:41:46.292Z,23.23
2022-08-26T01:44:18.554Z,23.23
2022-08-26T01:46:48.807Z,23.23
2022-08-26T01:49:18.017Z,23.28
2022-08-26T01:51:48.029Z,23.31
2022-08-26T01:54:15.913Z,23.34
2022-08-26T01:56:42.803Z,23.26
2022-08-26T01:59:15.166Z,23.27
2022-08-26T02:01:44.033Z,23.22
2022-08-26T02:04:23.359Z,23.30
2022-08-26T02:06:51.710Z,23.14
2022-08-26T02:09:19.767Z,23.26
2022-08-26T02:11:47.868Z,23.27
2022-08-26T02:14:20.952Z,23.22
2022-08-26T02:16:50.439Z,23.22
2022-08-26T02:19:21.445Z,23.27
2022-08-26T02:21:52.060Z,23.22
2022-08-26T02:24:30.261Z,23.26
2022-08-26T02:26:58.086Z,23.30
2022-08-26T02:29:29.095Z,23.29
2022-08-26T02:31:55.791Z,23.15
2022-08-26T02:34:31.306Z,23.11
2022-08-26T02:37:01.060Z,23.12
2022-08-26T02:39:29.629Z,23.04
2022-08-26T02:41:57.513Z,22.75
2022-08-26T02:44:24.001Z,22.54
2022-08-26T02:46:52.828Z,22.60
2022-08-26T02:49:21.834Z,22.74
2022-08-26T02:51:49.458Z,22.86
2022-08-26T02:54:18.132Z,22.91
2022-08-26T02:56:45.302Z,22.42
2022-08-26T02:59:15.386Z,22.56
2022-08-26T03:01:42.550Z,22.70
2022-08-26T03:04:11.109Z,22.66
2022-08-26T03:06:39.308Z,22.49
2022-08-26T03:09:09.083Z,22.55
2022-08-26T03:11:36.700Z,22.49
2022-08-26T03:14:03.957Z,22.43
2022-08-26T03:16:36.116Z,22.48
2022-08-26T03:19:06.063Z,22.47
2022-08-26T03:21:33.232Z,22.47
2022-08-26T03:24:00.505Z,22.50
2022-08-26T03:26:28.399Z,22.57
2022-08-26T03:29:14.680Z,22.55
2022-08-26T03:31:41.979Z,22.55
2022-08-26T03:34:09.675Z,22.60
2022-08-26T03:36:38.623Z,22.51
2022-08-26T03:39:06.442Z,22.58
2022-08-26T03:41:36.751Z,22.57
2022-08-26T03:44:05.718Z,22.57
2022-08-26T03:46:33.671Z,22.54
2022-08-26T03:49:02.071Z,22.45
2022-08-26T03:51:29.069Z,22.44
2022-08-26T03:53:56.016Z,22.46
2022-08-26T03:56:23.746Z,22.44
2022-08-26T03:58:50.509Z,22.33
2022-08-26T04:01:17.594Z,22.44
2022-08-26T04:03:58.224Z,22.46
2022-08-26T04:06:36.400Z,22.50
2022-08-26T04:09:06.818Z,22.45
2022-08-26T04:11:35.906Z,22.28
2022-08-26T04:14:26.130Z,22.35
2022-08-26T04:16:55.243Z,22.31
2022-08-26T04:19:23.178Z,22.14
2022-08-26T04:21:52.768Z,22.25
2022-08-26T04:24:22.096Z,22.25
2022-08-26T04:26:48.810Z,22.14
2022-08-26T04:29:19.078Z,22.15
2022-08-26T04:31:48.066Z,22.12
2022-08-26T04:34:15.274Z,22.07
2022-08-26T04:36:43.083Z,21.98
2022-08-26T04:39:16.856Z,22.19
2022-08-26T04:41:45.281Z,21.87
2022-08-26T04:44:11.856Z,21.80
2022-08-26T04:46:39.835Z,21.49
2022-08-26T04:49:11.096Z,21.25
2022-08-26T04:51:38.322Z,21.41
2022-08-26T04:54:07.132Z,21.40
2022-08-26T04:56:40.042Z,21.13
2022-08-26T04:59:16.530Z,20.97
2022-08-26T05:01:48.854Z,21.08
2022-08-26T05:04:19.035Z,21.13
2022-08-26T05:06:46.579Z,21.17
2022-08-26T05:09:15.300Z,21.10
2022-08-26T05:11:42.294Z,21.31
2022-08-26T05:14:08.873Z,21.59
2022-08-26T05:16:35.479Z,21.58
2022-08-26T05:19:03.513Z,21.03
2022-08-26T05:21:30.031Z,21.08
2022-08-26T05:23:57.096Z,21.06
2022-08-26T05:26:29.567Z,21.20
2022-08-26T05:28:57.244Z,21.28
2022-08-26T05:31:27.280Z,21.15
2022-08-26T05:33:54.913Z,21.07
2022-08-26T05:36:23.258Z,21.22
2022-08-26T05:38:53.794Z,21.48
2022-08-26T05:41:34.520Z,20.94
2022-08-26T05:44:06.907Z,21.19
2022-08-26T05:46:34.608Z,21.15
2022-08-26T05:49:02.492Z,21.23
2022-08-26T05:51:30.429Z,21.32
2022-08-26T05:53:58.402Z,21.43
2022-08-26T05:56:27.421Z,21.52
2022-08-26T05:58:55.563Z,21.71
2022-08-26T06:01:28.165Z,21.85
2022-08-26T06:03:57.537Z,21.95
2022-08-26T06:06:29.279Z,22.15
2022-08-26T06:08:57.907Z,22.19
2022-08-26T06:11:26.056Z,22.15
2022-08-26T06:13:54.702Z,22.14
2022-08-26T06:16:23.592Z,22.17
2022-08-26T06:18:51.867Z,22.13
2022-08-26T06:21:22.392Z,22.30
2022-08-26T06:24:09.221Z,22.24
2022-08-26T06:26:36.573Z,22.15
2022-08-26T06:29:04.726Z,22.25
2022-08-26T06:31:33.766Z,22.27
2022-08-26T06:34:01.349Z,22.31
2022-08-26T06:36:30.466Z,22.34
2022-08-26T06:39:01.337Z,22.21
2022-08-26T06:41:27.920Z,22.31
2022-08-26T06:43:54.390Z,22.33
2022-08-26T06:46:22.002Z,22.39
2022-08-26T06:48:49.099Z,22.56
2022-08-26T06:51:22.364Z,22.38
2022-08-26T06:53:52.379Z,22.43
2022-08-26T06:56:22.845Z,22.51
2022-08-26T06:58:51.292Z,22.48
2022-08-26T07:01:29.329Z,22.64
2022-08-26T07:03:59.136Z,22.73
2022-08-26T07:06:28.087Z,22.76
2022-08-26T07:09:01.661Z,22.75
2022-08-26T07:11:30.836Z,22.91
2022-08-26T07:13:58.913Z,23.05
2022-08-26T07:16:28.325Z,22.76
2022-08-26T07:18:56.836Z,23.00
2022-08-26T07:21:24.971Z,23.22
2022-08-26T07:23:54.620Z,23.42
2022-08-26T07:26:26.941Z,23.35
2022-08-26T07:28:56.773Z,23.21
2022-08-26T07:31:26.595Z,23.26
2022-08-26T07:33:53.535Z,23.12
2022-08-26T07:36:22.003Z,23.08
2022-08-26T07:38:49.171Z,23.18
2022-08-26T07:41:18.591Z,23.29
2022-08-26T07:43:45.989Z,23.20
2022-08-26T07:46:18.424Z,23.22
2022-08-26T07:48:48.972Z,23.13
2022-08-26T07:51:18.022Z,23.39
2022-08-26T07:53:48.061Z,23.37
2022-08-26T07:56:19.113Z,23.19
2022-08-26T07:58:48.983Z,23.49
2022-08-26T08:01:18.118Z,23.49
2022-08-26T08:03:45.394Z,23.52
2022-08-26T08:06:11.938Z,23.57
2022-08-26T08:08:40.726Z,23.67
2022-08-26T08:11:07.486Z,23.91
2022-08-26T08:13:37.836Z,23.85
2022-08-26T08:16:05.573Z,23.89
2022-08-26T08:18:32.087Z,23.81
2022-08-26T08:21:21.397Z,23.93
2022-08-26T08:23:48.242Z,23.98
2022-08-26T08:26:15.364Z,23.99
2022-08-26T08:28:43.687Z,24.32
2022-08-26T08:31:55.963Z,24.47
2022-08-26T08:34:15.145Z,24.35
2022-08-26T08:36:41.829Z,24.20
2022-08-26T08:39:09.277Z,24.54
2022-08-26T08:42:17.641Z,24.49
2022-08-26T08:44:52.097Z,24.38
2022-08-26T08:47:36.412Z,24.56
2022-08-26T08:50:33.998Z,24.40
2022-08-26T08:53:09.081Z,24.41
2022-08-26T08:55:58.610Z,24.51
2022-08-26T08:58:39.519Z,24.68
2022-08-26T09:01:12.049Z,24.79
2022-08-26T09:03:55.605Z,24.74
2022-08-26T09:06:24.097Z,25.10
2022-08-26T09:08:56.341Z,25.22
2022-08-26T09:11:23.104Z,25.22
2022-08-26T09:13:54.202Z,25.50
2022-08-26T09:16:46.668Z,25.09
2022-08-26T09:19:41.392Z,25.24
2022-08-26T09:22:09.535Z,25.32
2022-08-26T09:24:41.754Z,25.31
2022-08-26T09:27:50.510Z,25.30
2022-08-26T09:30:33.143Z,25.40
2022-08-26T09:33:06.709Z,25.49
2022-08-26T09:35:40.394Z,25.48
2022-08-26T09:38:28.154Z,25.52
2022-08-26T09:41:06.908Z,25.53
2022-08-26T09:43:35.343Z,25.81
2022-08-26T09:46:22.570Z,25.65
2022-08-26T09:48:51.633Z,25.39
2022-08-26T09:51:31.224Z,25.61
2022-08-26T09:54:03.096Z,25.66
2022-08-26T09:56:38.316Z,25.68
2022-08-26T09:59:11.123Z,25.66
2022-08-26T10:01:42.682Z,25.90
2022-08-26T10:04:14.047Z,25.96
2022-08-26T10:06:54.490Z,26.36
2022-08-26T10:09:23.806Z,26.32
2022-08-26T10:11:54.049Z,26.37
2022-08-26T10:14:37.118Z,26.17
2022-08-26T10:17:11.080Z,26.32
2022-08-26T10:19:57.057Z,26.36
2022-08-26T10:22:24.071Z,26.62
2022-08-26T10:24:55.947Z,26.46
2022-08-26T10:27:40.487Z,26.85
2022-08-26T10:30:21.517Z,27.10
2022-08-26T10:33:18.559Z,27.28
2022-08-26T10:35:58.664Z,27.16
2022-08-26T10:38:39.225Z,26.99
2022-08-26T10:41:16.933Z,27.14
2022-08-26T10:43:59.045Z,27.65
2022-08-26T10:46:34.498Z,27.29
2022-08-26T10:49:08.499Z,27.29
2022-08-26T10:51:42.188Z,27.53
2022-08-26T10:54:16.942Z,27.52
2022-08-26T10:56:44.018Z,27.81
2022-08-26T10:59:16.502Z,27.86
2022-08-26T11:01:43.430Z,27.76
2022-08-26T11:04:34.881Z,27.82
2022-08-26T11:07:39.161Z,27.91
2022-08-26T11:10:20.866Z,27.35
2022-08-26T11:12:55.778Z,27.59
2022-08-26T11:15:29.449Z,27.41
2022-08-26T11:18:01.865Z,27.54
2022-08-26T11:20:42.382Z,27.66
2022-08-26T11:23:23.983Z,27.82
2022-08-26T11:25:56.896Z,27.33
2022-08-26T11:28:48.102Z,27.76
2022-08-26T11:31:26.986Z,27.56
2022-08-26T11:34:40.869Z,27.13
2022-08-26T11:37:17.820Z,26.95
2022-08-26T11:39:57.010Z,27.15
2022-08-26T11:42:46.458Z,27.31
2022-08-26T11:45:28.468Z,27.39
2022-08-26T11:47:57.223Z,27.39
2022-08-26T11:50:29.525Z,27.59
2022-08-26T11:53:06.362Z,27.48
2022-08-26T11:55:42.959Z,27.31
2022-08-26T11:58:13.381Z,27.35
2022-08-26T12:00:52.499Z,27.53
2022-08-26T12:03:25.046Z,27.31
2022-08-26T12:05:53.473Z,27.45
2022-08-26T12:08:24.743Z,27.62
2022-08-26T12:11:23.158Z,27.59
2022-08-26T12:14:00.093Z,27.69
2022-08-26T12:16:39.199Z,27.93
2022-08-26T12:19:21.604Z,28.14
2022-08-26T12:21:58.775Z,28.42
2022-08-26T12:24:26.286Z,28.41
2022-08-26T12:27:11.658Z,28.11
2022-08-26T12:29:39.581Z,28.31
2022-08-26T12:32:13.322Z,28.63
2022-08-26T12:34:46.694Z,28.01
2022-08-26T12:37:15.118Z,28.07
2022-08-26T12:39:44.479Z,28.19
2022-08-26T12:42:15.764Z,28.19
2022-08-26T12:44:58.453Z,28.53
2022-08-26T12:47:42.613Z,28.64
2022-08-26T12:50:18.841Z,28.86
2022-08-26T12:53:08.678Z,29.10
2022-08-26T12:55:44.177Z,28.92
2022-08-26T12:58:39.141Z,28.46
2022-08-26T13:01:08.674Z,28.82
2022-08-26T13:03:37.140Z,28.98
2022-08-26T13:06:22.288Z,28.85
2022-08-26T13:08:54.755Z,29.18
2022-08-26T13:11:44.853Z,29.15
2022-08-26T13:14:18.338Z,29.12
2022-08-26T13:16:52.795Z,28.81
2022-08-26T13:19:21.092Z,29.09
2022-08-26T13:21:53.182Z,29.16
2022-08-26T13:24:27.067Z,29.24
2022-08-26T13:26:54.066Z,29.15
2022-08-26T13:29:20.873Z,29.38
2022-08-26T13:31:48.832Z,29.16
2022-08-26T13:34:19.247Z,29.01
2022-08-26T13:36:50.391Z,29.22
2022-08-26T13:39:17.870Z,29.36
2022-08-26T13:41:44.724Z,29.57
2022-08-26T13:44:11.969Z,29.22
2022-08-26T13:46:39.025Z,28.59
2022-08-26T13:49:06.467Z,28.61
2022-08-26T13:51:33.686Z,29.09
2022-08-26T13:54:01.951Z,29.35
2022-08-26T13:56:29.923Z,29.16
2022-08-26T13:58:57.734Z,29.36
2022-08-26T14:01:25.752Z,29.13
2022-08-26T14:03:59.117Z,29.41
2022-08-26T14:06:26.243Z,29.71
2022-08-26T14:08:53.330Z,29.60
2022-08-26T14:11:23.047Z,29.66
2022-08-26T14:13:50.368Z,29.11
2022-08-26T14:16:29.125Z,28.37
2022-08-26T14:19:00.249Z,28.62
2022-08-26T14:21:33.336Z,28.69
2022-08-26T14:24:03.765Z,28.48
2022-08-26T14:26:30.319Z,28.79
2022-08-26T14:29:01.340Z,28.70
2022-08-26T14:31:31.284Z,28.81
2022-08-26T14:34:02.475Z,28.42
2022-08-26T14:36:29.180Z,28.41
2022-08-26T14:38:58.171Z,28.31
2022-08-26T14:41:25.385Z,28.32
2022-08-26T14:44:13.648Z,28.34
2022-08-26T14:46:45.890Z,28.20
2022-08-26T14:49:13.190Z,28.06
2022-08-26T14:51:41.034Z,27.85
2022-08-26T14:54:11.809Z,27.65
2022-08-26T14:57:01.019Z,27.71
2022-08-26T14:59:30.550Z,27.80
2022-08-26T15:01:57.770Z,27.56
2022-08-26T15:04:25.305Z,27.60
2022-08-26T15:06:54.133Z,27.77
2022-08-26T15:09:21.528Z,27.81
2022-08-26T15:11:48.450Z,27.85
2022-08-26T15:14:19.629Z,27.73
2022-08-26T15:16:52.453Z,27.79
2022-08-26T15:19:20.648Z,27.80
2022-08-26T15:21:47.822Z,27.66
2022-08-26T15:24:16.960Z,27.51
2022-08-26T15:26:43.808Z,27.23
2022-08-26T15:29:10.615Z,26.81
2022-08-26T15:31:37.228Z,27.12
2022-08-26T15:34:08.535Z,27.22
2022-08-26T15:36:37.723Z,27.26
2022-08-26T15:39:07.211Z,27.32
2022-08-26T15:41:34.944Z,26.67
2022-08-26T15:44:02.226Z,26.60
2022-08-26T15:46:30.377Z,26.77
2022-08-26T15:48:56.950Z,26.74
2022-08-26T15:51:26.881Z,26.74
2022-08-26T15:53:56.258Z,26.54
2022-08-26T15:56:29.667Z,26.52
2022-08-26T15:58:56.564Z,26.47
2022-08-26T16:01:27.734Z,26.71
2022-08-26T16:03:55.908Z,26.64
2022-08-26T16:06:27.366Z,26.59
2022-08-26T16:08:56.095Z,26.36
2022-08-26T16:11:23.542Z,26.32
2022-08-26T16:13:50.623Z,26.35
2022-08-26T16:16:18.081Z,26.28
2022-08-26T16:18:45.243Z,25.88
2022-08-26T16:21:16.362Z,25.84
2022-08-26T16:23:44.982Z,25.69
2022-08-26T16:26:19.305Z,25.74
2022-08-26T16:28:47.357Z,25.81
2022-08-26T16:31:15.455Z,25.70
2022-08-26T16:33:42.289Z,25.55
2022-08-26T16:36:09.833Z,25.69
2022-08-26T16:38:38.128Z,25.84
2022-08-26T16:41:05.969Z,25.58
2022-08-26T16:43:33.249Z,25.37
2022-08-26T16:46:00.129Z,25.45
2022-08-26T16:48:27.837Z,25.71
2022-08-26T16:50:55.622Z,25.52
2022-08-26T16:53:22.770Z,25.45
2022-08-26T16:55:50.699Z,25.43
2022-08-26T16:58:17.478Z,25.51
2022-08-26T17:00:45.169Z,25.67
2022-08-26T17:03:12.400Z,25.76
2022-08-26T17:05:40.329Z,25.47
2022-08-26T17:08:07.407Z,25.50
2022-08-26T17:10:34.548Z,25.59
2022-08-26T17:13:01.371Z,25.30
2022-08-26T17:15:28.383Z,25.61
2022-08-26T17:17:56.121Z,25.20
2022-08-26T17:20:24.435Z,25.21
2022-08-26T17:22:52.808Z,25.26
2022-08-26T17:25:21.785Z,25.18
2022-08-26T17:27:48.535Z,25.24
2022-08-26T17:30:16.860Z,25.37
2022-08-26T17:32:43.601Z,25.16
2022-08-26T17:35:12.911Z,24.90
2022-08-26T17:37:40.285Z,24.77
2022-08-26T17:40:09.989Z,25.12
2022-08-26T17:42:37.631Z,24.86
2022-08-26T17:45:04.537Z,24.48
2022-08-26T17:47:31.026Z,24.52
2022-08-26T17:49:57.601Z,24.84
2022-08-26T17:52:24.355Z,24.76
2022-08-26T17:54:56.338Z,24.43
2022-08-26T17:57:24.502Z,24.74
2022-08-26T17:59:51.006Z,24.74
2022-08-26T18:02:19.416Z,24.68
2022-08-26T18:04:45.928Z,24.43
2022-08-26T18:07:12.544Z,24.57
2022-08-26T18:09:39.278Z,24.56
2022-08-26T18:12:06.153Z,24.33
2022-08-26T18:14:33.793Z,24.56
2022-08-26T18:17:00.620Z,24.64
2022-08-26T18:19:27.817Z,24.55
2022-08-26T18:21:54.454Z,24.73
2022-08-26T18:24:21.336Z,24.57
2022-08-26T18:26:51.144Z,24.30
2022-08-26T18:29:20.000Z,24.35
2022-08-26T18:31:47.096Z,24.43
2022-08-26T18:34:15.583Z,24.56
2022-08-26T18:36:43.775Z,24.50
2022-08-26T18:39:12.228Z,24.43
2022-08-26T18:41:45.545Z,24.29
2022-08-26T18:44:14.230Z,24.10
2022-08-26T18:46:41.335Z,24.34
2022-08-26T18:49:08.517Z,24.32
2022-08-26T18:51:35.207Z,24.26
2022-08-26T18:54:04.589Z,24.00
2022-08-26T18:56:32.044Z,24.04
2022-08-26T18:59:01.617Z,24.02
2022-08-26T19:01:30.260Z,23.70
2022-08-26T19:03:59.004Z,23.63
2022-08-26T19:06:26.860Z,23.44
2022-08-26T19:08:53.784Z,23.39
2022-08-26T19:11:31.809Z,23.13
2022-08-26T19:14:00.605Z,23.15
2022-08-26T19:16:27.525Z,22.94
2022-08-26T19:18:56.061Z,23.11
2022-08-26T19:21:23.576Z,23.23
2022-08-26T19:23:51.120Z,22.82
2022-08-26T19:26:19.369Z,22.95
2022-08-26T19:28:46.064Z,23.27
2022-08-26T19:31:12.871Z,23.11
2022-08-26T19:33:42.949Z,22.99
2022-08-26T19:36:15.237Z,23.24
2022-08-26T19:38:42.863Z,23.42
2022-08-26T19:41:14.941Z,23.18
2022-08-26T19:43:41.890Z,22.99
2022-08-26T19:46:13.617Z,23.09
2022-08-26T19:48:43.916Z,23.26
2022-08-26T19:51:26.510Z,23.29
2022-08-26T19:53:54.735Z,23.00
2022-08-26T19:56:22.167Z,22.86
2022-08-26T19:58:49.390Z,22.88
2022-08-26T20:01:16.705Z,22.91
2022-08-26T20:03:43.965Z,23.03
2022-08-26T20:06:12.839Z,23.13
2022-08-26T20:08:40.983Z,23.12
2022-08-26T20:11:12.279Z,23.11
2022-08-26T20:13:40.582Z,23.25
2022-08-26T20:16:07.389Z,23.07
2022-08-26T20:18:52.803Z,22.66
2022-08-26T20:21:29.221Z,22.96
2022-08-26T20:24:07.153Z,22.50
2022-08-26T20:26:36.177Z,22.65
2022-08-26T20:29:04.220Z,22.86
2022-08-26T20:31:31.233Z,22.66
2022-08-26T20:33:58.403Z,22.57
2022-08-26T20:36:27.443Z,22.46
2022-08-26T20:38:55.195Z,22.84
2022-08-26T20:41:24.037Z,23.07
2022-08-26T20:43:50.683Z,23.00
2022-08-26T20:46:21.029Z,23.11
2022-08-26T20:48:49.585Z,22.72
2022-08-26T20:51:17.894Z,22.86
2022-08-26T20:53:44.932Z,22.89
2022-08-26T20:56:13.568Z,22.82
2022-08-26T20:58:40.880Z,22.88
2022-08-26T21:01:08.989Z,23.02
2022-08-26T21:03:36.865Z,23.16
2022-08-26T21:06:03.877Z,22.93
2022-08-26T21:08:33.384Z,23.00
2022-08-26T21:11:00.941Z,23.10
2022-08-26T21:13:35.766Z,23.23
2022-08-26T21:16:10.172Z,23.00
2022-08-26T21:18:36.935Z,22.78
2022-08-26T21:21:07.955Z,22.78
2022-08-26T21:23:35.832Z,22.82
2022-08-26T21:26:07.482Z,22.81
2022-08-26T21:28:39.527Z,22.78
2022-08-26T21:31:08.055Z,22.75
2022-08-26T21:33:36.075Z,22.87
2022-08-26T21:36:03.571Z,22.94
2022-08-26T21:38:33.254Z,23.04
2022-08-26T21:41:03.443Z,23.02
2022-08-26T21:43:35.220Z,23.01
2022-08-26T21:46:11.428Z,23.05
2022-08-26T21:48:50.521Z,22.85
2022-08-26T21:51:20.579Z,22.51
2022-08-26T21:53:47.932Z,22.54
2022-08-26T21:56:17.024Z,22.65
2022-08-26T21:58:44.165Z,22.31
2022-08-26T22:01:13.992Z,22.42
2022-08-26T22:03:46.887Z,22.38
2022-08-26T22:06:14.185Z,22.39
2022-08-26T22:08:40.663Z,22.49
2022-08-26T22:11:07.299Z,22.49
2022-08-26T22:13:36.923Z,22.22
2022-08-26T22:16:04.621Z,22.19
2022-08-26T22:18:31.784Z,22.19
2022-08-26T22:21:02.100Z,22.23
2022-08-26T22:23:28.897Z,22.23
2022-08-26T22:25:55.944Z,21.96
2022-08-26T22:28:22.832Z,21.97
2022-08-26T22:30:49.801Z,22.17
2022-08-26T22:33:16.574Z,22.09
2022-08-26T22:35:46.440Z,22.02
2022-08-26T22:38:13.440Z,22.14
2022-08-26T22:40:45.466Z,21.97
2022-08-26T22:43:12.906Z,22.20
2022-08-26T22:45:45.742Z,22.15
2022-08-26T22:48:15.511Z,22.21
2022-08-26T22:50:43.113Z,22.14
2022-08-26T22:53:10.055Z,22.28
2022-08-26T22:55:36.858Z,22.00
2022-08-26T22:58:04.676Z,21.71
2022-08-26T23:00:32.526Z,21.72
2022-08-26T23:02:59.329Z,22.00
2022-08-26T23:05:25.929Z,22.11
2022-08-26T23:07:52.487Z,21.93
2022-08-26T23:10:19.101Z,21.95
2022-08-26T23:12:45.605Z,21.68
2022-08-26T23:15:12.329Z,21.90
2022-08-26T23:17:39.640Z,21.85
2022-08-26T23:20:10.338Z,21.84
2022-08-26T23:22:37.646Z,21.74
2022-08-26T23:25:07.718Z,21.86
2022-08-26T23:27:36.481Z,21.69
2022-08-26T23:30:07.336Z,21.85
2022-08-26T23:32:33.847Z,21.84
2022-08-26T23:35:00.398Z,21.89
2022-08-26T23:37:39.206Z,22.02
2022-08-26T23:40:23.088Z,22.03
2022-08-26T23:42:51.032Z,21.92
2022-08-26T23:45:18.525Z,21.79
2022-08-26T23:47:46.178Z,22.08
2022-08-26T23:50:14.057Z,21.96
2022-08-26T23:52:58.912Z,21.97
2022-08-26T23:55:25.809Z,21.30
2022-08-26T23:57:52.574Z,21.53
